createdAt,value
2023-05-14T00:02:21.319Z,10.00
2023-05-14T00:07:23.310Z,10.07
2023-05-14T00:12:26.401Z,10.06
2023-05-14T00:17:28.262Z,9.96
2023-05-14T00:22:30.021Z,9.92
2023-05-14T00:27:31.867Z,9.90
2023-05-14T00:32:33.901Z,9.86
2023-05-14T00:37:36.474Z,9.91
2023-05-14T00:42:38.426Z,9.78
2023-05-14T00:47:41.026Z,9.71
2023-05-14T00:52:43.157Z,9.74
2023-05-14T00:57:45.336Z,9.75
2023-05-14T01:02:47.309Z,9.65
2023-05-14T01:08:05.366Z,9.52
2023-05-14T01:13:27.500Z,9.64
2023-05-14T01:18:31.492Z,9.71
2023-05-14T01:23:33.583Z,9.67
2023-05-14T01:28:37.625Z,9.67
2023-05-14T01:33:42.409Z,9.72
2023-05-14T01:38:47.275Z,9.94
2023-05-14T01:43:49.458Z,9.89
2023-05-14T01:48:51.302Z,9.77
2023-05-14T01:53:53.420Z,9.60
2023-05-14T01:58:57.628Z,9.73
2023-05-14T02:03:59.811Z,9.88
2023-05-14T02:09:02.532Z,9.97
2023-05-14T02:14:04.393Z,9.92
2023-05-14T02:19:06.461Z,9.83
2023-05-14T02:24:08.335Z,9.91
2023-05-14T02:29:10.508Z,9.62
2023-05-14T02:34:12.288Z,9.53
2023-05-14T02:39:14.069Z,9.55
2023-05-14T02:44:15.883Z,9.63
2023-05-14T02:49:17.700Z,9.72
2023-05-14T02:54:19.428Z,9.68
2023-05-14T02:59:21.932Z,9.67
2023-05-14T03:04:24.016Z,9.78
2023-05-14T03:09:25.790Z,9.75
2023-05-14T03:14:27.531Z,9.86
2023-05-14T03:19:29.314Z,9.89
2023-05-14T03:24:31.595Z,9.83
2023-05-14T03:29:33.363Z,9.78
2023-05-14T03:34:35.322Z,9.61
2023-05-14T03:39:37.225Z,9.67
2023-05-14T03:44:39.820Z,9.69
2023-05-14T03:49:41.648Z,9.65
2023-05-14T03:54:45.907Z,9.63
2023-05-14T03:59:47.754Z,9.66
2023-05-14T04:04:49.560Z,9.75
2023-05-14T04:09:56.970Z,9.66
2023-05-14T04:14:58.930Z,9.63
2023-05-14T04:20:00.899Z,9.52
2023-05-14T04:25:02.655Z,9.54
2023-05-14T04:30:04.847Z,9.68
2023-05-14T04:35:07.346Z,9.72
2023-05-14T04:40:11.398Z,9.65
2023-05-14T04:45:13.652Z,9.61
2023-05-14T04:50:15.855Z,9.68
2023-05-14T04:55:17.629Z,9.63
2023-05-14T05:00:22.021Z,9.67
2023-05-14T05:05:24.535Z,9.75
2023-05-14T05:10:26.425Z,9.79
2023-05-14T05:15:28.487Z,9.98
2023-05-14T05:20:30.299Z,9.93
2023-05-14T05:25:32.115Z,10.02
2023-05-14T05:30:34.176Z,10.07
2023-05-14T05:35:35.939Z,10.07
2023-05-14T05:40:37.790Z,10.07
2023-05-14T05:45:39.628Z,10.28
2023-05-14T05:50:41.389Z,10.55
2023-05-14T05:55:43.162Z,10.64
2023-05-14T06:00:45.697Z,10.68
2023-05-14T06:05:47.580Z,10.70
2023-05-14T06:10:49.639Z,10.70
2023-05-14T06:15:51.360Z,10.65
2023-05-14T06:20:53.104Z,10.74
2023-05-14T06:25:54.902Z,11.12
2023-05-14T06:30:56.745Z,11.22
2023-05-14T06:35:59.814Z,11.36
2023-05-14T06:41:01.601Z,11.74
2023-05-14T06:46:03.595Z,11.91
2023-05-14T06:51:05.411Z,12.13
2023-05-14T06:56:07.951Z,12.55
2023-05-14T07:01:09.793Z,12.50
2023-05-14T07:06:13.531Z,12.41
2023-05-14T07:11:15.565Z,12.69
2023-05-14T07:16:17.350Z,13.83
2023-05-14T07:21:19.366Z,14.04
2023-05-14T07:26:21.543Z,14.56
2023-05-14T07:31:23.524Z,14.63
2023-05-14T07:36:25.366Z,15.30
2023-05-14T07:41:27.142Z,15.97
2023-05-14T07:46:28.954Z,16.40
2023-05-14T07:51:33.451Z,17.61
2023-05-14T07:56:35.201Z,17.78
2023-05-14T08:01:39.156Z,17.47
2023-05-14T08:06:41.336Z,17.15
2023-05-14T08:11:44.124Z,17.83
2023-05-14T08:16:45.983Z,17.79
2023-05-14T08:21:48.050Z,18.24
2023-05-14T08:26:49.952Z,18.67
2023-05-14T08:31:51.780Z,19.25
2023-05-14T08:36:53.701Z,19.34
2023-05-14T08:41:59.488Z,20.26
2023-05-14T08:47:02.006Z,20.84
2023-05-14T08:52:04.275Z,21.24
2023-05-14T08:57:09.388Z,21.76
2023-05-14T09:02:14.766Z,21.52
2023-05-14T09:07:16.880Z,21.25
2023-05-14T09:12:18.995Z,21.04
2023-05-14T09:17:21.176Z,21.59
2023-05-14T09:22:22.983Z,21.47
2023-05-14T09:27:25.986Z,21.75
2023-05-14T09:32:27.810Z,22.14
2023-05-14T09:37:29.987Z,22.26
2023-05-14T09:42:31.726Z,22.45
2023-05-14T09:47:33.680Z,22.16
2023-05-14T09:52:35.665Z,22.79
2023-05-14T09:57:38.735Z,22.07
2023-05-14T10:02:43.061Z,21.77
2023-05-14T10:07:48.515Z,21.90
2023-05-14T10:13:04.751Z,20.79
2023-05-14T10:18:19.017Z,20.11
2023-05-14T10:23:20.863Z,20.92
2023-05-14T10:28:22.805Z,22.26
2023-05-14T10:33:24.589Z,22.43
2023-05-14T10:38:32.144Z,21.70
2023-05-14T10:43:38.538Z,20.42
2023-05-14T10:48:43.033Z,20.03
2023-05-14T10:53:44.918Z,20.35
2023-05-14T10:58:46.674Z,19.92
2023-05-14T11:03:53.458Z,20.35
2023-05-14T11:08:56.267Z,20.87
2023-05-14T11:13:58.196Z,20.60
2023-05-14T11:19:06.447Z,20.43
2023-05-14T11:24:08.320Z,20.90
2023-05-14T11:29:10.691Z,21.15
2023-05-14T11:34:12.422Z,20.99
2023-05-14T11:39:19.932Z,21.25
2023-05-14T11:44:22.585Z,21.32
2023-05-14T11:49:29.453Z,21.21
2023-05-14T11:54:32.357Z,21.46
2023-05-14T11:59:34.473Z,21.18
2023-05-14T12:04:36.721Z,21.27
2023-05-14T12:09:48.986Z,21.19
2023-05-14T12:14:51.182Z,21.05
2023-05-14T12:19:54.235Z,20.91
2023-05-14T12:24:58.237Z,21.54
2023-05-14T12:30:20.013Z,21.77
2023-05-14T12:35:23.598Z,21.84
2023-05-14T12:40:26.697Z,21.55
2023-05-14T12:45:29.283Z,21.02
2023-05-14T12:50:31.564Z,20.72
2023-05-14T12:55:34.480Z,21.13
2023-05-14T13:00:36.502Z,21.23
2023-05-14T13:05:38.289Z,21.33
2023-05-14T13:10:40.248Z,21.73
2023-05-14T13:15:42.485Z,22.09
2023-05-14T13:20:46.677Z,22.33
2023-05-14T13:25:51.695Z,22.36
2023-05-14T13:31:22.764Z,22.72
2023-05-14T13:36:24.748Z,22.47
2023-05-14T13:41:26.636Z,22.47
2023-05-14T13:46:28.510Z,22.61
2023-05-14T13:51:31.484Z,22.43
2023-05-14T13:56:33.290Z,22.62
2023-05-14T14:01:35.122Z,22.58
2023-05-14T14:06:37.076Z,22.32
2023-05-14T14:11:39.227Z,22.14
2023-05-14T14:16:41.103Z,21.92
2023-05-14T14:21:43.066Z,22.04
2023-05-14T14:26:44.924Z,22.39
2023-05-14T14:31:46.696Z,22.09
2023-05-14T14:36:48.550Z,22.56
2023-05-14T14:41:50.474Z,22.86
2023-05-14T14:46:52.222Z,22.75
2023-05-14T14:51:54.659Z,19.20
2023-05-14T14:56:56.600Z,17.31
2023-05-14T15:01:58.634Z,16.35
2023-05-14T15:07:02.108Z,15.95
2023-05-14T15:12:04.095Z,16.11
2023-05-14T15:17:05.950Z,16.16
2023-05-14T15:22:07.783Z,15.97
2023-05-14T15:27:09.594Z,15.65
2023-05-14T15:32:11.596Z,16.20
2023-05-14T15:37:13.321Z,16.81
2023-05-14T15:42:15.100Z,16.99
2023-05-14T15:47:16.897Z,17.13
2023-05-14T15:52:18.673Z,17.17
2023-05-14T15:57:20.390Z,17.17
2023-05-14T16:02:22.344Z,17.12
2023-05-14T16:07:24.242Z,17.15
2023-05-14T16:12:26.377Z,17.51
2023-05-14T16:17:28.606Z,17.61
2023-05-14T16:22:32.667Z,17.81
2023-05-14T16:27:34.724Z,17.82
2023-05-14T16:32:36.599Z,17.51
2023-05-14T16:37:38.411Z,17.76
2023-05-14T16:42:40.675Z,17.94
2023-05-14T16:47:42.575Z,18.10
2023-05-14T16:52:44.455Z,18.06
2023-05-14T16:57:46.242Z,17.93
2023-05-14T17:02:49.847Z,17.92
2023-05-14T17:07:51.728Z,17.90
2023-05-14T17:12:53.565Z,17.87
2023-05-14T17:17:56.067Z,17.74
2023-05-14T17:22:58.521Z,17.69
2023-05-14T17:28:00.578Z,17.76
2023-05-14T17:33:02.821Z,17.48
2023-05-14T17:38:04.818Z,17.47
2023-05-14T17:43:08.653Z,17.44
2023-05-14T17:48:10.571Z,17.45
2023-05-14T17:53:12.406Z,17.41
2023-05-14T17:58:15.546Z,17.24
2023-05-14T18:03:17.562Z,17.20
2023-05-14T18:08:19.570Z,17.12
2023-05-14T18:13:21.364Z,16.98
2023-05-14T18:18:24.088Z,16.83
2023-05-14T18:23:25.964Z,16.81
2023-05-14T18:28:27.992Z,16.77
2023-05-14T18:33:31.224Z,16.54
2023-05-14T18:38:32.967Z,16.48
2023-05-14T18:43:34.764Z,16.35
2023-05-14T18:48:38.128Z,16.08
2023-05-14T18:53:40.128Z,16.11
2023-05-14T18:58:41.872Z,16.09
2023-05-14T19:03:43.924Z,15.82
2023-05-14T19:08:46.542Z,15.71
2023-05-14T19:13:49.622Z,15.82
2023-05-14T19:18:51.541Z,15.72
2023-05-14T19:23:53.383Z,15.42
2023-05-14T19:28:58.589Z,15.49
2023-05-14T19:34:00.431Z,15.57
2023-05-14T19:39:02.192Z,15.61
2023-05-14T19:44:04.016Z,15.59
2023-05-14T19:49:06.151Z,15.59
2023-05-14T19:54:08.042Z,15.54
2023-05-14T19:59:09.836Z,15.37
2023-05-14T20:04:14.123Z,15.14
2023-05-14T20:09:15.889Z,15.24
2023-05-14T20:14:17.728Z,15.22
2023-05-14T20:19:21.402Z,15.25
2023-05-14T20:24:23.273Z,15.22
2023-05-14T20:29:25.071Z,15.11
2023-05-14T20:34:26.866Z,15.01
2023-05-14T20:39:28.603Z,15.05
2023-05-14T20:44:30.410Z,14.97
2023-05-14T20:49:32.132Z,15.02
2023-05-14T20:54:33.854Z,14.96
2023-05-14T20:59:35.707Z,14.88
2023-05-14T21:04:38.295Z,14.74
2023-05-14T21:09:40.739Z,14.64
2023-05-14T21:14:42.823Z,14.65
2023-05-14T21:19:44.610Z,14.61
2023-05-14T21:24:46.418Z,14.54
2023-05-14T21:29:48.196Z,14.58
2023-05-14T21:34:49.973Z,14.42
2023-05-14T21:39:51.945Z,14.43
2023-05-14T21:44:53.765Z,14.45
2023-05-14T21:49:55.500Z,14.39
2023-05-14T21:54:57.230Z,14.29
2023-05-14T21:59:58.939Z,14.10
2023-05-14T22:05:00.729Z,14.09
2023-05-14T22:10:02.455Z,14.12
2023-05-14T22:15:05.800Z,14.18
2023-05-14T22:20:09.714Z,14.12
2023-05-14T22:25:11.448Z,14.00
2023-05-14T22:30:13.378Z,13.92
2023-05-14T22:35:15.485Z,13.86
2023-05-14T22:40:17.274Z,13.74
2023-05-14T22:45:19.067Z,13.56
2023-05-14T22:50:20.855Z,13.38
2023-05-14T22:55:22.955Z,13.17
2023-05-14T23:00:25.331Z,13.04
2023-05-14T23:05:27.286Z,12.93
2023-05-14T23:10:29.642Z,12.80
2023-05-14T23:15:31.713Z,12.68
2023-05-14T23:20:33.507Z,12.60
2023-05-14T23:25:35.279Z,12.52
2023-05-14T23:30:37.001Z,12.55
2023-05-14T23:35:39.748Z,12.53
2023-05-14T23:40:41.560Z,12.36
2023-05-14T23:45:43.369Z,12.33
2023-05-14T23:50:45.246Z,12.30
2023-05-14T23:55:47.330Z,12.19
